Time;durP1;ratioP1;P1;durP2;ratioP2;P2;SDS_P1;SDS_P2;PMS_P1;PMS_P2;Temp;Humidity;BMP_temperature;BMP_pressure;BME280_temperature;BME280_humidity;BME280_pressure;Samples;Min_cycle;Max_cycle;Signal;HPM_P1;HPM_P2
2023/08/11 00:01:40;;;;;;;1.83;0.75;;;;;;;;;;5070600;28;20040;-68
2023/08/11 00:04:07;;;;;;;4.40;1.35;;;;;;;;;;5070772;28;20020;-68
2023/08/11 00:06:35;;;;;;;1.10;0.73;;;;;;;;;;5064402;28;20020;-68
2023/08/11 00:09:07;;;;;;;26.08;1.20;;;;;;;;;;5073971;28;20047;-68
2023/08/11 00:11:35;;;;;;;2.55;0.90;;;;;;;;;;5074885;28;20029;-68
2023/08/11 00:14:02;;;;;;;1.70;0.80;;;;;;;;;;5071946;28;20050;-68
2023/08/11 00:16:29;;;;;;;1.98;0.70;;;;;;;;;;5056095;28;20039;-68
2023/08/11 00:18:57;;;;;;;2.85;1.25;;;;;;;;;;5061048;28;20024;-67
2023/08/11 00:21:23;;;;;;;2.15;1.23;;;;;;;;;;5069684;28;20438;-67
2023/08/11 00:23:50;;;;;;;3.60;1.60;;;;;;;;;;5065671;28;20119;-67
2023/08/11 00:26:19;;;;;;;3.08;1.27;;;;;;;;;;5064053;28;20055;-67
2023/08/11 00:28:46;;;;;;;2.63;1.52;;;;;;;;;;5071835;28;20036;-67
2023/08/11 00:31:13;;;;;;;2.75;1.00;;;;;;;;;;5074524;28;20029;-68
2023/08/11 00:33:46;;;;;;;1.02;0.77;;;;;;;;;;5074621;28;20045;-67
2023/08/11 00:36:15;;;;;;;3.13;1.10;;;;;;;;;;5074618;28;20024;-67
2023/08/11 00:38:42;;;;;;;6.50;1.75;;;;;;;;;;5075207;28;20123;-67
2023/08/11 00:41:11;;;;;;;6.45;1.30;;;;;;;;;;5072991;28;20040;-67
2023/08/11 00:43:39;;;;;;;4.18;0.70;;;;;;;;;;5050562;28;20112;-67
2023/08/11 00:46:12;;;;;;;8.82;1.33;;;;;;;;;;5048228;28;20032;-67
2023/08/11 00:48:41;;;;;;;4.00;0.73;;;;;;;;;;5068092;28;20021;-67
2023/08/11 00:51:15;;;;;;;3.85;1.02;;;;;;;;;;5069816;28;20529;-67
2023/08/11 00:53:43;;;;;;;6.50;0.80;;;;;;;;;;5074484;28;20032;-67
2023/08/11 00:56:12;;;;;;;1.73;0.75;;;;;;;;;;5074045;28;20449;-69
2023/08/11 00:58:40;;;;;;;1.83;1.05;;;;;;;;;;5074443;28;20034;-69
2023/08/11 01:01:08;;;;;;;1.95;0.98;;;;;;;;;;5074128;28;20035;-69
2023/08/11 01:03:34;;;;;;;0.43;0.43;;;;;;;;;;5054919;28;20082;-68
2023/08/11 01:06:21;;;;;;;5.30;1.05;;;;;;;;;;5051179;28;20033;-68
2023/08/11 01:08:53;;;;;;;0.75;0.52;;;;;;;;;;5050987;28;20040;-69
2023/08/11 01:11:34;;;;;;;4.05;1.05;;;;;;;;;;5068512;28;20108;-69
2023/08/11 01:14:04;;;;;;;1.10;0.70;;;;;;;;;;5046121;28;20052;-69
2023/08/11 01:16:34;;;;;;;7.20;1.25;;;;;;;;;;5074114;28;20195;-68
2023/08/11 01:19:04;;;;;;;1.25;0.95;;;;;;;;;;5068807;28;20505;-69
2023/08/11 01:21:37;;;;;;;2.28;1.05;;;;;;;;;;5072198;28;20060;-68
2023/08/11 01:24:09;;;;;;;2.00;1.23;;;;;;;;;;5066586;28;20033;-69
2023/08/11 01:26:36;;;;;;;3.88;1.05;;;;;;;;;;5070306;28;20024;-68
2023/08/11 01:29:04;;;;;;;2.05;0.95;;;;;;;;;;5066316;28;20035;-69
2023/08/11 01:31:36;;;;;;;3.25;0.70;;;;;;;;;;5068716;28;20543;-68
2023/08/11 01:34:03;;;;;;;1.67;1.13;;;;;;;;;;5067054;28;20036;-69
2023/08/11 01:36:30;;;;;;;3.75;1.02;;;;;;;;;;5071706;28;20024;-68
2023/08/11 01:38:58;;;;;;;11.98;5.88;;;;;;;;;;5073281;28;20036;-68
2023/08/11 01:41:24;;;;;;;11.68;2.38;;;;;;;;;;5055586;28;20024;-68
2023/08/11 01:43:53;;;;;;;1.77;1.10;;;;;;;;;;5073964;28;20419;-68
2023/08/11 01:46:21;;;;;;;2.08;1.23;;;;;;;;;;5039276;28;20040;-68
2023/08/11 01:48:48;;;;;;;1.38;1.02;;;;;;;;;;5069799;28;20031;-68
2023/08/11 01:51:16;;;;;;;1.98;1.10;;;;;;;;;;5068236;28;20475;-68
2023/08/11 01:53:43;;;;;;;2.78;1.38;;;;;;;;;;5067715;28;20024;-68
2023/08/11 01:56:12;;;;;;;1.90;1.13;;;;;;;;;;5055884;28;20032;-67
2023/08/11 01:58:39;;;;;;;2.42;1.35;;;;;;;;;;5045695;28;20056;-67
2023/08/11 02:01:07;;;;;;;1.73;1.13;;;;;;;;;;5053375;28;20033;-68
2023/08/11 02:03:36;;;;;;;1.60;1.00;;;;;;;;;;5055971;28;20092;-67
2023/08/11 02:06:02;;;;;;;2.17;1.38;;;;;;;;;;5050215;28;20051;-68
2023/08/11 02:08:31;;;;;;;1.02;0.73;;;;;;;;;;5072318;28;20028;-68
2023/08/11 02:10:58;;;;;;;6.50;1.63;;;;;;;;;;5049419;28;20101;-67
2023/08/11 02:13:29;;;;;;;1.33;0.85;;;;;;;;;;5067957;28;20041;-67
2023/08/11 02:15:55;;;;;;;3.58;2.13;;;;;;;;;;5050240;28;20064;-67
2023/08/11 02:18:25;;;;;;;6.85;1.88;;;;;;;;;;5066744;28;20036;-68
2023/08/11 02:20:56;;;;;;;7.30;3.78;;;;;;;;;;5068629;28;20450;-68
2023/08/11 02:23:24;;;;;;;7.05;3.50;;;;;;;;;;5061471;28;20020;-68
2023/08/11 02:25:50;;;;;;;4.75;2.83;;;;;;;;;;5072366;28;20028;-67
2023/08/11 02:28:23;;;;;;;6.60;2.22;;;;;;;;;;5072130;28;20027;-67
2023/08/11 02:30:50;;;;;;;5.38;1.15;;;;;;;;;;5069527;28;20126;-68
2023/08/11 02:33:18;;;;;;;5.23;1.70;;;;;;;;;;5035466;28;20040;-68
2023/08/11 02:35:46;;;;;;;3.25;1.25;;;;;;;;;;5030122;28;20059;-68
2023/08/11 02:38:15;;;;;;;8.73;2.10;;;;;;;;;;5029275;28;20442;-68
2023/08/11 02:40:45;;;;;;;4.80;2.67;;;;;;;;;;5030791;28;20017;-68
2023/08/11 02:43:12;;;;;;;12.55;2.83;;;;;;;;;;5052954;28;20025;-68
2023/08/11 02:45:39;;;;;;;6.33;4.07;;;;;;;;;;5072001;28;20486;-68
2023/08/11 02:48:09;;;;;;;7.60;3.50;;;;;;;;;;5072678;28;20482;-69
2023/08/11 02:50:39;;;;;;;13.25;3.90;;;;;;;;;;5072640;28;20077;-68
2023/08/11 02:53:06;;;;;;;6.18;3.28;;;;;;;;;;5072341;28;20047;-67
2023/08/11 02:55:33;;;;;;;13.70;2.40;;;;;;;;;;5068683;28;20396;-67
2023/08/11 02:58:04;;;;;;;3.43;1.93;;;;;;;;;;5065515;28;20032;-67
2023/08/11 03:00:37;;;;;;;7.70;1.50;;;;;;;;;;5066519;28;20025;-67
2023/08/11 03:03:04;;;;;;;1.07;0.77;;;;;;;;;;5047765;28;20028;-67
2023/08/11 03:05:31;;;;;;;8.60;1.53;;;;;;;;;;5069116;28;20039;-67
2023/08/11 03:07:58;;;;;;;3.67;1.67;;;;;;;;;;5071065;28;20131;-67
2023/08/11 03:10:24;;;;;;;3.23;1.50;;;;;;;;;;5072493;28;20016;-67
2023/08/11 03:12:51;;;;;;;2.17;1.27;;;;;;;;;;5044664;28;20384;-67
2023/08/11 03:15:19;;;;;;;2.43;1.50;;;;;;;;;;5035687;28;20080;-67
2023/08/11 03:17:46;;;;;;;2.30;1.37;;;;;;;;;;5063532;28;20112;-68
2023/08/11 03:20:14;;;;;;;2.00;1.43;;;;;;;;;;5066976;28;20023;-67
2023/08/11 03:22:45;;;;;;;23.27;1.37;;;;;;;;;;5063444;28;20881;-67
2023/08/11 03:25:12;;;;;;;0.93;0.77;;;;;;;;;;5058378;28;20485;-67
2023/08/11 03:27:41;;;;;;;3.17;1.73;;;;;;;;;;5069801;28;20387;-67
2023/08/11 03:30:10;;;;;;;3.03;1.77;;;;;;;;;;5071629;28;20032;-67
2023/08/11 03:32:40;;;;;;;8.90;5.03;;;;;;;;;;5071212;28;20032;-69
2023/08/11 03:35:07;;;;;;;8.90;3.90;;;;;;;;;;5076098;28;20491;-67
2023/08/11 03:37:34;;;;;;;13.97;3.23;;;;;;;;;;5075783;28;20038;-67
2023/08/11 03:40:02;;;;;;;9.80;5.00;;;;;;;;;;5072553;28;20664;-67
2023/08/11 03:42:29;;;;;;;16.20;3.90;;;;;;;;;;5071042;28;20020;-67
2023/08/11 03:44:56;;;;;;;6.07;3.00;;;;;;;;;;5052641;28;20048;-67
2023/08/11 03:47:22;;;;;;;4.30;2.30;;;;;;;;;;5070694;28;20033;-67
2023/08/11 03:49:49;;;;;;;11.40;3.63;;;;;;;;;;5073094;28;20040;-67
2023/08/11 03:52:16;;;;;;;2.33;1.67;;;;;;;;;;5075948;28;20028;-67
2023/08/11 03:54:43;;;;;;;6.47;2.13;;;;;;;;;;5075597;28;20032;-66
2023/08/11 03:57:09;;;;;;;3.77;1.90;;;;;;;;;;5075289;28;20103;-67
2023/08/11 03:59:36;;;;;;;5.03;2.13;;;;;;;;;;5075750;28;20016;-67
2023/08/11 04:02:03;;;;;;;1.80;1.30;;;;;;;;;;5071508;28;20036;-67
2023/08/11 04:04:30;;;;;;;4.53;1.50;;;;;;;;;;5053507;28;20052;-68
2023/08/11 04:06:57;;;;;;;4.87;2.20;;;;;;;;;;5060566;28;20090;-67
2023/08/11 04:09:23;;;;;;;4.53;1.63;;;;;;;;;;5062733;28;20029;-67
2023/08/11 04:11:50;;;;;;;1.93;1.30;;;;;;;;;;5071622;28;20124;-66
2023/08/11 04:14:17;;;;;;;3.90;1.43;;;;;;;;;;5074602;28;20063;-66
2023/08/11 04:16:44;;;;;;;2.63;1.57;;;;;;;;;;5075365;28;20033;-66
2023/08/11 04:19:11;;;;;;;3.10;1.77;;;;;;;;;;5074846;28;20035;-66
2023/08/11 04:21:39;;;;;;;4.80;1.73;;;;;;;;;;5073126;28;20028;-67
2023/08/11 04:24:06;;;;;;;2.00;1.30;;;;;;;;;;5070230;28;20024;-66
2023/08/11 04:26:33;;;;;;;2.30;1.10;;;;;;;;;;5062762;28;20021;-66
2023/08/11 04:29:01;;;;;;;2.67;1.00;;;;;;;;;;5062904;28;20107;-66
2023/08/11 04:31:29;;;;;;;1.50;0.97;;;;;;;;;;5069935;28;20420;-66
2023/08/11 04:33:56;;;;;;;1.47;0.87;;;;;;;;;;5065410;28;20077;-66
2023/08/11 04:36:22;;;;;;;2.40;1.07;;;;;;;;;;5075301;28;20028;-66
2023/08/11 04:38:49;;;;;;;2.43;0.93;;;;;;;;;;5074200;28;20024;-66
2023/08/11 04:41:16;;;;;;;0.67;0.50;;;;;;;;;;5071226;28;20631;-66
2023/08/11 04:43:43;;;;;;;2.30;0.63;;;;;;;;;;5070456;28;20048;-66
2023/08/11 04:46:09;;;;;;;0.87;0.57;;;;;;;;;;5071946;28;20174;-67
2023/08/11 04:48:36;;;;;;;1.57;0.90;;;;;;;;;;5056165;28;20038;-66
2023/08/11 04:51:03;;;;;;;2.07;1.03;;;;;;;;;;5069655;28;20117;-66
2023/08/11 04:53:30;;;;;;;1.60;0.90;;;;;;;;;;5069390;28;20033;-67
2023/08/11 04:55:57;;;;;;;0.87;0.57;;;;;;;;;;5070306;28;20029;-66
2023/08/11 04:58:24;;;;;;;0.80;0.50;;;;;;;;;;5074836;28;20052;-66
2023/08/11 05:00:51;;;;;;;1.53;0.87;;;;;;;;;;5072563;28;20029;-66
2023/08/11 05:03:19;;;;;;;1.60;0.83;;;;;;;;;;5074664;28;20535;-66
2023/08/11 05:05:46;;;;;;;0.73;0.57;;;;;;;;;;5074490;28;20028;-66
2023/08/11 05:08:13;;;;;;;1.70;0.87;;;;;;;;;;5072590;28;20052;-66
2023/08/11 05:10:40;;;;;;;1.10;0.80;;;;;;;;;;5068558;28;20074;-66
2023/08/11 05:13:06;;;;;;;0.57;0.50;;;;;;;;;;5069408;28;20036;-66
2023/08/11 05:15:33;;;;;;;0.20;0.20;;;;;;;;;;5069342;28;20374;-67
2023/08/11 05:18:01;;;;;;;0.63;0.47;;;;;;;;;;5052249;28;20024;-66
2023/08/11 05:20:28;;;;;;;0.40;0.37;;;;;;;;;;5074240;28;20383;-66
2023/08/11 05:22:55;;;;;;;0.87;0.43;;;;;;;;;;5073073;28;20028;-67
2023/08/11 05:25:21;;;;;;;0.40;0.33;;;;;;;;;;5073824;28;20064;-66
2023/08/11 05:27:48;;;;;;;1.67;0.73;;;;;;;;;;5073967;28;20074;-67
2023/08/11 05:30:15;;;;;;;1.00;0.67;;;;;;;;;;5072881;28;20036;-69
2023/08/11 05:32:42;;;;;;;1.07;0.60;;;;;;;;;;5066872;28;20518;-67
2023/08/11 05:35:09;;;;;;;1.33;0.80;;;;;;;;;;5067061;28;20037;-67
2023/08/11 05:37:37;;;;;;;0.67;0.50;;;;;;;;;;5068922;28;20044;-67
2023/08/11 05:40:07;;;;;;;0.67;0.57;;;;;;;;;;5064595;28;20107;-67
2023/08/11 05:42:33;;;;;;;0.50;0.40;;;;;;;;;;5064336;28;20086;-68
2023/08/11 05:45:01;;;;;;;0.40;0.17;;;;;;;;;;5064090;28;20040;-68
2023/08/11 05:47:28;;;;;;;0.40;0.37;;;;;;;;;;5073604;28;20028;-68
2023/08/11 05:49:54;;;;;;;0.80;0.67;;;;;;;;;;5073914;28;20031;-69
2023/08/11 05:52:21;;;;;;;3.43;0.73;;;;;;;;;;5072533;28;20024;-70
2023/08/11 05:54:48;;;;;;;0.50;0.50;;;;;;;;;;5068080;28;20094;-70
2023/08/11 05:57:15;;;;;;;1.73;0.87;;;;;;;;;;5059302;28;20029;-70
2023/08/11 05:59:41;;;;;;;0.73;0.53;;;;;;;;;;5067695;28;20024;-70
2023/08/11 06:02:08;;;;;;;0.63;0.57;;;;;;;;;;5067894;28;20024;-70
2023/08/11 06:04:35;;;;;;;1.10;0.80;;;;;;;;;;5037920;28;20125;-69
2023/08/11 06:07:02;;;;;;;1.00;0.77;;;;;;;;;;5073179;28;20095;-70
2023/08/11 06:09:29;;;;;;;1.17;0.67;;;;;;;;;;5073214;28;20094;-70
2023/08/11 06:11:56;;;;;;;0.70;0.67;;;;;;;;;;5073061;28;20091;-70
2023/08/11 06:14:23;;;;;;;0.50;0.50;;;;;;;;;;5071593;28;20040;-71
2023/08/11 06:16:49;;;;;;;1.20;0.60;;;;;;;;;;5067741;28;20040;-70
2023/08/11 06:19:16;;;;;;;0.83;0.60;;;;;;;;;;5068184;28;20539;-69
2023/08/11 06:21:45;;;;;;;0.50;0.40;;;;;;;;;;5067770;28;20025;-69
2023/08/11 06:24:12;;;;;;;0.83;0.60;;;;;;;;;;5049739;28;20024;-69
2023/08/11 06:26:39;;;;;;;0.87;0.60;;;;;;;;;;5072761;28;20025;-69
2023/08/11 06:29:06;;;;;;;0.70;0.53;;;;;;;;;;5064836;28;20439;-69
2023/08/11 06:31:32;;;;;;;1.93;0.87;;;;;;;;;;5072388;28;20021;-70
2023/08/11 06:33:59;;;;;;;0.67;0.60;;;;;;;;;;5072951;28;20032;-69
2023/08/11 06:36:26;;;;;;;1.57;0.80;;;;;;;;;;5072787;28;20016;-69
2023/08/11 06:38:53;;;;;;;0.63;0.60;;;;;;;;;;5067677;28;20085;-69
2023/08/11 06:41:20;;;;;;;0.50;0.50;;;;;;;;;;5067282;28;20035;-69
2023/08/11 06:43:47;;;;;;;1.43;0.80;;;;;;;;;;5067578;28;20013;-68
2023/08/11 06:46:14;;;;;;;2.50;0.50;;;;;;;;;;5067228;28;20502;-70
2023/08/11 06:48:41;;;;;;;1.17;0.90;;;;;;;;;;5072119;28;20027;-69
2023/08/11 06:51:08;;;;;;;1.00;0.80;;;;;;;;;;5072216;28;20115;-69
2023/08/11 06:53:35;;;;;;;1.90;0.73;;;;;;;;;;5072418;28;20035;-68
2023/08/11 06:56:02;;;;;;;0.97;0.60;;;;;;;;;;5072426;28;20036;-68
2023/08/11 06:58:28;;;;;;;1.20;0.70;;;;;;;;;;5072460;28;20016;-68
2023/08/11 07:00:55;;;;;;;0.73;0.67;;;;;;;;;;5067255;28;20017;-68
2023/08/11 07:03:22;;;;;;;1.67;0.90;;;;;;;;;;5066232;28;20035;-68
2023/08/11 07:05:51;;;;;;;1.13;0.80;;;;;;;;;;5066471;28;20553;-68
2023/08/11 07:08:19;;;;;;;1.70;0.97;;;;;;;;;;5065831;28;20040;-68
2023/08/11 07:10:46;;;;;;;1.37;1.00;;;;;;;;;;5071614;28;20028;-68
2023/08/11 07:13:12;;;;;;;1.60;1.03;;;;;;;;;;5072544;28;20024;-68
2023/08/11 07:15:43;;;;;;;1.00;0.67;;;;;;;;;;5072351;28;20495;-68
2023/08/11 07:18:12;;;;;;;1.43;0.93;;;;;;;;;;5053261;28;20471;-68
2023/08/11 07:20:43;;;;;;;0.50;0.50;;;;;;;;;;5072135;28;20822;-68
2023/08/11 07:23:10;;;;;;;1.47;1.00;;;;;;;;;;5066874;28;20414;-67
2023/08/11 07:25:37;;;;;;;1.50;0.97;;;;;;;;;;5049153;28;20364;-68
2023/08/11 07:28:04;;;;;;;1.43;0.83;;;;;;;;;;5066644;28;20099;-68
2023/08/11 07:30:31;;;;;;;2.00;0.87;;;;;;;;;;5066788;28;20103;-68
2023/08/11 07:33:00;;;;;;;0.60;0.40;;;;;;;;;;5070934;28;20052;-68
2023/08/11 07:35:27;;;;;;;0.47;0.43;;;;;;;;;;5072192;28;20703;-67
2023/08/11 07:37:54;;;;;;;1.77;1.20;;;;;;;;;;5072057;28;20100;-68
2023/08/11 07:40:21;;;;;;;2.07;1.33;;;;;;;;;;5071636;28;20040;-67
2023/08/11 07:42:47;;;;;;;1.27;0.70;;;;;;;;;;5072063;28;20025;-67
2023/08/11 07:45:14;;;;;;;1.87;0.97;;;;;;;;;;5067159;28;20484;-67
2023/08/11 07:47:41;;;;;;;1.43;0.90;;;;;;;;;;5066084;28;20078;-68
2023/08/11 07:50:08;;;;;;;2.47;1.07;;;;;;;;;;5066842;28;20432;-68
2023/08/11 07:52:35;;;;;;;2.40;1.17;;;;;;;;;;5066665;28;20040;-67
2023/08/11 07:55:02;;;;;;;2.23;1.00;;;;;;;;;;5070623;28;20020;-67
2023/08/11 07:57:28;;;;;;;1.47;0.90;;;;;;;;;;5071537;28;20119;-67
2023/08/11 07:59:57;;;;;;;1.00;0.70;;;;;;;;;;5071628;28;20075;-67
2023/08/11 08:02:26;;;;;;;1.13;0.80;;;;;;;;;;5071840;28;20078;-67
2023/08/11 08:04:53;;;;;;;1.13;0.83;;;;;;;;;;5071609;28;20067;-67
2023/08/11 08:07:20;;;;;;;2.03;1.07;;;;;;;;;;5049130;28;20090;-67
2023/08/11 08:09:47;;;;;;;3.70;1.03;;;;;;;;;;5066159;28;20036;-67
2023/08/11 08:12:15;;;;;;;2.00;1.13;;;;;;;;;;5066472;28;20021;-67
2023/08/11 08:14:43;;;;;;;1.17;0.73;;;;;;;;;;5066203;28;20035;-68
2023/08/11 08:17:10;;;;;;;3.03;1.50;;;;;;;;;;5070550;28;20039;-67
2023/08/11 08:19:37;;;;;;;1.50;0.97;;;;;;;;;;5074405;28;20032;-68
2023/08/11 08:22:04;;;;;;;7.10;1.77;;;;;;;;;;5074876;28;20081;-67
2023/08/11 08:24:31;;;;;;;1.53;0.93;;;;;;;;;;5075159;28;20032;-67
2023/08/11 08:26:57;;;;;;;0.80;0.67;;;;;;;;;;5075308;28;20086;-67
2023/08/11 08:29:25;;;;;;;2.63;1.73;;;;;;;;;;5071365;28;20025;-67
2023/08/11 08:31:51;;;;;;;1.47;0.67;;;;;;;;;;5069804;28;20024;-67
2023/08/11 08:34:18;;;;;;;3.77;1.20;;;;;;;;;;5051502;28;20360;-68
2023/08/11 08:36:45;;;;;;;4.33;1.67;;;;;;;;;;5069703;28;20489;-67
2023/08/11 08:39:12;;;;;;;1.47;0.67;;;;;;;;;;5073057;28;20752;-67
2023/08/11 08:41:39;;;;;;;1.20;0.70;;;;;;;;;;5075176;28;20098;-67
2023/08/11 08:44:06;;;;;;;1.40;0.77;;;;;;;;;;5075082;28;20035;-67
2023/08/11 08:46:34;;;;;;;1.70;0.67;;;;;;;;;;5074781;28;20921;-67
2023/08/11 08:49:08;;;;;;;1.87;1.30;;;;;;;;;;5074764;28;20039;-67
2023/08/11 08:51:37;;;;;;;1.77;1.00;;;;;;;;;;5070868;28;20474;-67
2023/08/11 08:54:04;;;;;;;1.10;0.53;;;;;;;;;;5069551;28;20495;-67
2023/08/11 08:56:30;;;;;;;0.60;0.57;;;;;;;;;;5069391;28;20099;-67
2023/08/11 08:58:57;;;;;;;1.10;0.90;;;;;;;;;;5069163;28;20510;-67
2023/08/11 09:01:24;;;;;;;1.63;0.80;;;;;;;;;;5072725;28;20107;-67
2023/08/11 09:03:51;;;;;;;2.67;1.07;;;;;;;;;;5074619;28;20375;-67
2023/08/11 09:06:19;;;;;;;1.00;0.70;;;;;;;;;;5073890;28;20052;-67
2023/08/11 09:08:47;;;;;;;0.93;0.63;;;;;;;;;;5074209;28;20032;-67
2023/08/11 09:11:14;;;;;;;1.10;0.80;;;;;;;;;;5074608;28;20099;-67
2023/08/11 09:13:40;;;;;;;1.57;0.87;;;;;;;;;;5070773;28;20454;-67
2023/08/11 09:16:08;;;;;;;1.17;0.70;;;;;;;;;;5068865;28;20024;-67
2023/08/11 09:18:34;;;;;;;0.57;0.40;;;;;;;;;;5069112;28;20025;-67
2023/08/11 09:21:05;;;;;;;1.03;0.80;;;;;;;;;;5068538;28;20048;-68
2023/08/11 09:23:33;;;;;;;0.67;0.63;;;;;;;;;;5071954;28;20111;-68
2023/08/11 09:26:01;;;;;;;1.20;0.87;;;;;;;;;;5074295;28;20031;-67
2023/08/11 09:28:28;;;;;;;1.47;0.93;;;;;;;;;;5073842;28;20020;-67
2023/08/11 09:30:55;;;;;;;1.27;0.80;;;;;;;;;;5073108;28;20025;-67
2023/08/11 09:33:23;;;;;;;0.50;0.43;;;;;;;;;;5074043;28;20032;-67
2023/08/11 09:35:49;;;;;;;0.43;0.37;;;;;;;;;;5070237;28;20040;-67
2023/08/11 09:38:16;;;;;;;1.10;0.97;;;;;;;;;;5050669;28;20495;-67
2023/08/11 09:40:43;;;;;;;0.70;0.50;;;;;;;;;;5068087;28;20025;-68
2023/08/11 09:43:13;;;;;;;1.53;1.03;;;;;;;;;;5068629;28;20029;-67
2023/08/11 09:45:40;;;;;;;1.73;0.90;;;;;;;;;;5071419;28;20029;-67
2023/08/11 09:48:08;;;;;;;1.27;0.70;;;;;;;;;;5073724;28;20113;-67
2023/08/11 09:50:36;;;;;;;1.40;0.80;;;;;;;;;;5073211;28;20471;-68
2023/08/11 09:53:05;;;;;;;1.83;1.00;;;;;;;;;;5073633;28;20031;-68
2023/08/11 09:55:32;;;;;;;0.83;0.60;;;;;;;;;;5073715;28;20027;-67
2023/08/11 09:58:00;;;;;;;1.10;0.60;;;;;;;;;;5070301;28;20454;-67
2023/08/11 10:00:27;;;;;;;0.77;0.70;;;;;;;;;;5068149;28;20099;-67
2023/08/11 10:02:57;;;;;;;2.23;0.87;;;;;;;;;;5067940;28;20025;-67
2023/08/11 10:05:27;;;;;;;1.53;1.00;;;;;;;;;;5068208;28;20029;-67
2023/08/11 10:07:55;;;;;;;2.13;1.30;;;;;;;;;;5070894;28;20028;-67
2023/08/11 10:10:23;;;;;;;2.67;1.10;;;;;;;;;;5073401;28;20103;-67
2023/08/11 10:12:56;;;;;;;1.07;0.83;;;;;;;;;;5072813;28;20040;-67
2023/08/11 10:15:23;;;;;;;1.93;1.10;;;;;;;;;;5073284;28;20446;-67
2023/08/11 10:17:50;;;;;;;2.63;0.97;;;;;;;;;;5073123;28;20179;-67
2023/08/11 10:20:17;;;;;;;1.50;1.07;;;;;;;;;;5069197;28;20459;-67
2023/08/11 10:22:44;;;;;;;2.80;1.40;;;;;;;;;;5067896;28;20016;-67
2023/08/11 10:25:11;;;;;;;1.93;0.97;;;;;;;;;;5067544;28;20501;-67
2023/08/11 10:27:39;;;;;;;3.57;1.40;;;;;;;;;;5067795;28;20027;-67
2023/08/11 10:30:07;;;;;;;0.93;0.67;;;;;;;;;;5070110;28;20032;-67
2023/08/11 10:32:35;;;;;;;1.90;1.17;;;;;;;;;;5054849;28;20122;-66
2023/08/11 10:35:03;;;;;;;1.60;0.77;;;;;;;;;;5072486;28;20082;-67
2023/08/11 10:37:30;;;;;;;4.23;0.83;;;;;;;;;;5072904;28;20523;-66
2023/08/11 10:40:09;;;;;;;1.37;0.80;;;;;;;;;;5072478;28;20031;-66
2023/08/11 10:42:39;;;;;;;1.43;0.70;;;;;;;;;;5068709;28;20107;-67
2023/08/11 10:45:13;;;;;;;0.63;0.63;;;;;;;;;;5067610;28;20024;-67
2023/08/11 10:47:45;;;;;;;2.22;1.00;;;;;;;;;;5067515;28;20103;-66
2023/08/11 10:50:14;;;;;;;1.10;0.53;;;;;;;;;;5066984;28;20020;-67
2023/08/11 10:52:41;;;;;;;4.93;0.63;;;;;;;;;;5070619;28;20035;-67
2023/08/11 10:55:08;;;;;;;0.77;0.67;;;;;;;;;;5072637;28;20100;-66
2023/08/11 10:57:35;;;;;;;0.87;0.57;;;;;;;;;;5072594;28;20035;-66
2023/08/11 11:00:03;;;;;;;5.87;0.70;;;;;;;;;;5072077;28;20021;-67
2023/08/11 11:02:32;;;;;;;0.30;0.30;;;;;;;;;;5072197;28;20035;-66
2023/08/11 11:04:58;;;;;;;0.53;0.47;;;;;;;;;;5067902;28;20417;-67
2023/08/11 11:07:25;;;;;;;1.40;0.73;;;;;;;;;;5067256;28;20506;-67
2023/08/11 11:09:52;;;;;;;1.77;0.63;;;;;;;;;;5067248;28;20553;-66
2023/08/11 11:12:19;;;;;;;0.73;0.60;;;;;;;;;;5066965;28;20024;-67
2023/08/11 11:14:46;;;;;;;1.60;0.80;;;;;;;;;;5069993;28;20031;-68
2023/08/11 11:17:14;;;;;;;1.80;0.67;;;;;;;;;;5072099;28;20375;-66
2023/08/11 11:19:41;;;;;;;0.90;0.63;;;;;;;;;;5054325;28;20086;-66
2023/08/11 11:22:08;;;;;;;1.00;0.70;;;;;;;;;;5072218;28;20017;-66
2023/08/11 11:24:34;;;;;;;1.00;0.60;;;;;;;;;;5072251;28;20028;-67
2023/08/11 11:27:01;;;;;;;1.70;0.57;;;;;;;;;;5067573;28;20167;-67
2023/08/11 11:29:28;;;;;;;0.77;0.50;;;;;;;;;;5065571;28;20372;-66
2023/08/11 11:31:55;;;;;;;1.20;0.80;;;;;;;;;;5066369;28;20032;-66
2023/08/11 11:34:22;;;;;;;1.30;0.73;;;;;;;;;;5066818;28;20125;-66
2023/08/11 11:36:49;;;;;;;0.73;0.53;;;;;;;;;;5069825;28;20024;-66
2023/08/11 11:39:15;;;;;;;1.20;0.60;;;;;;;;;;5072076;28;20078;-66
2023/08/11 11:41:42;;;;;;;0.87;0.50;;;;;;;;;;5072040;28;20584;-66
2023/08/11 11:44:09;;;;;;;10.70;0.93;;;;;;;;;;5071997;28;20044;-67
2023/08/11 11:46:36;;;;;;;1.03;0.50;;;;;;;;;;5071732;28;20104;-68
2023/08/11 11:49:03;;;;;;;0.83;0.40;;;;;;;;;;5049962;28;20123;-66
2023/08/11 11:51:30;;;;;;;1.03;0.50;;;;;;;;;;5066861;28;20025;-66
2023/08/11 11:53:59;;;;;;;0.37;0.27;;;;;;;;;;5068692;28;20173;-66
2023/08/11 11:56:28;;;;;;;0.50;0.40;;;;;;;;;;5070534;28;20082;-66
2023/08/11 11:58:56;;;;;;;0.50;0.43;;;;;;;;;;5073772;28;20353;-66
2023/08/11 12:01:28;;;;;;;0.50;0.37;;;;;;;;;;5075280;28;20020;-67
2023/08/11 12:03:59;;;;;;;0.50;0.50;;;;;;;;;;5075467;28;20042;-66
2023/08/11 12:06:29;;;;;;;0.20;0.20;;;;;;;;;;5075808;28;20025;-67
2023/08/11 12:09:04;;;;;;;1.30;0.60;;;;;;;;;;5075705;28;20090;-66
2023/08/11 12:11:31;;;;;;;2.30;0.35;;;;;;;;;;5070828;28;20112;-66
2023/08/11 12:13:59;;;;;;;1.63;0.70;;;;;;;;;;5069562;28;20040;-67
2023/08/11 12:16:27;;;;;;;0.63;0.43;;;;;;;;;;5070382;28;20063;-66
2023/08/11 12:18:53;;;;;;;0.40;0.30;;;;;;;;;;5070242;28;20040;-67
2023/08/11 12:21:20;;;;;;;15.03;0.60;;;;;;;;;;5073389;28;20025;-66
2023/08/11 12:23:47;;;;;;;0.10;0.10;;;;;;;;;;5075340;28;20021;-66
2023/08/11 12:26:14;;;;;;;0.47;0.40;;;;;;;;;;5075234;28;20111;-67
2023/08/11 12:28:40;;;;;;;0.77;0.57;;;;;;;;;;5074947;28;20024;-67
2023/08/11 12:31:07;;;;;;;0.67;0.50;;;;;;;;;;5075342;28;20028;-67
2023/08/11 12:33:34;;;;;;;0.33;0.23;;;;;;;;;;5070760;28;20483;-66
2023/08/11 12:36:01;;;;;;;0.47;0.40;;;;;;;;;;5069818;28;20024;-66
2023/08/11 12:38:27;;;;;;;0.83;0.50;;;;;;;;;;5069755;28;20067;-67
2023/08/11 12:40:54;;;;;;;0.73;0.50;;;;;;;;;;5069835;28;20031;-66
2023/08/11 12:43:21;;;;;;;0.53;0.30;;;;;;;;;;5072869;28;20391;-66
2023/08/11 12:45:48;;;;;;;0.47;0.47;;;;;;;;;;5074582;28;20032;-66
2023/08/11 12:48:15;;;;;;;1.03;0.53;;;;;;;;;;5075196;28;20020;-66
2023/08/11 12:50:42;;;;;;;1.27;0.60;;;;;;;;;;5074916;28;20094;-67
2023/08/11 12:53:09;;;;;;;0.53;0.30;;;;;;;;;;5074635;28;20086;-66
2023/08/11 12:55:39;;;;;;;1.43;0.80;;;;;;;;;;5071075;28;20027;-66
2023/08/11 12:58:07;;;;;;;0.80;0.43;;;;;;;;;;5069637;28;20025;-67
2023/08/11 13:00:36;;;;;;;0.60;0.37;;;;;;;;;;5069003;28;20021;-66
2023/08/11 13:03:03;;;;;;;1.13;0.33;;;;;;;;;;5069198;28;20496;-67
2023/08/11 13:05:29;;;;;;;0.20;0.20;;;;;;;;;;5070909;28;20109;-67
2023/08/11 13:07:56;;;;;;;1.23;0.77;;;;;;;;;;5074601;28;20041;-67
2023/08/11 13:10:23;;;;;;;1.30;0.83;;;;;;;;;;5074589;28;20028;-67
2023/08/11 13:12:50;;;;;;;0.77;0.70;;;;;;;;;;5074422;28;20150;-67
2023/08/11 13:15:16;;;;;;;3.03;1.40;;;;;;;;;;5073754;28;20025;-67
2023/08/11 13:17:47;;;;;;;1.70;1.17;;;;;;;;;;5070907;28;20025;-67
2023/08/11 13:20:13;;;;;;;1.80;1.13;;;;;;;;;;5069016;28;20050;-67
2023/08/11 13:22:41;;;;;;;2.87;1.50;;;;;;;;;;5068967;28;20044;-67
2023/08/11 13:25:09;;;;;;;4.47;1.87;;;;;;;;;;5069162;28;20460;-67
2023/08/11 13:27:36;;;;;;;6.30;1.90;;;;;;;;;;5071662;28;20453;-67
2023/08/11 13:30:03;;;;;;;1.97;1.30;;;;;;;;;;5073769;28;20020;-67
2023/08/11 13:32:30;;;;;;;3.73;2.10;;;;;;;;;;5036090;28;20029;-68
2023/08/11 13:34:57;;;;;;;2.63;1.73;;;;;;;;;;5054151;28;20033;-67
2023/08/11 13:37:24;;;;;;;2.60;1.37;;;;;;;;;;5053890;28;20017;-67
2023/08/11 13:39:50;;;;;;;1.80;1.20;;;;;;;;;;5061165;28;20025;-68
2023/08/11 13:42:17;;;;;;;5.53;1.40;;;;;;;;;;5068619;28;20121;-67
2023/08/11 13:44:44;;;;;;;5.40;1.47;;;;;;;;;;5068592;28;20025;-68
2023/08/11 13:47:13;;;;;;;1.80;1.37;;;;;;;;;;5048832;28;20056;-68
2023/08/11 13:49:40;;;;;;;1.80;1.37;;;;;;;;;;5061381;28;20657;-68
2023/08/11 13:52:07;;;;;;;5.07;1.20;;;;;;;;;;5058086;28;20029;-68
2023/08/11 13:54:34;;;;;;;0.57;0.47;;;;;;;;;;5070347;28;20039;-68
2023/08/11 13:57:01;;;;;;;3.90;1.80;;;;;;;;;;5056590;28;20028;-69
2023/08/11 13:59:28;;;;;;;10.43;1.60;;;;;;;;;;5064243;28;20081;-68
2023/08/11 14:01:54;;;;;;;3.37;1.37;;;;;;;;;;5065165;28;20016;-69
2023/08/11 14:04:21;;;;;;;1.30;1.00;;;;;;;;;;5068311;28;20025;-68
2023/08/11 14:06:48;;;;;;;1.47;0.50;;;;;;;;;;5068302;28;20024;-68
2023/08/11 14:09:15;;;;;;;5.67;1.40;;;;;;;;;;5068072;28;20039;-68
2023/08/11 14:11:42;;;;;;;2.70;1.03;;;;;;;;;;5050513;28;20475;-68
2023/08/11 14:14:09;;;;;;;2.60;1.50;;;;;;;;;;5068857;28;20431;-68
2023/08/11 14:16:35;;;;;;;11.30;0.83;;;;;;;;;;5072228;28;20479;-69
2023/08/11 14:19:03;;;;;;;1.73;1.07;;;;;;;;;;5072812;28;20035;-68
2023/08/11 14:21:29;;;;;;;5.77;1.63;;;;;;;;;;5073225;28;20052;-69
2023/08/11 14:23:56;;;;;;;3.83;0.93;;;;;;;;;;5069612;28;20484;-68
2023/08/11 14:26:23;;;;;;;3.07;0.83;;;;;;;;;;5067819;28;20020;-68
2023/08/11 14:28:50;;;;;;;1.25;0.95;;;;;;;;;;5067124;28;20024;-69
2023/08/11 14:31:17;;;;;;;1.27;0.80;;;;;;;;;;5065184;28;20032;-69
2023/08/11 14:33:44;;;;;;;1.50;0.80;;;;;;;;;;5065282;28;20395;-68
2023/08/11 14:36:10;;;;;;;0.82;0.60;;;;;;;;;;5072372;28;20043;-69
2023/08/11 14:38:37;;;;;;;1.55;0.55;;;;;;;;;;5073008;28;20056;-68
2023/08/11 14:41:04;;;;;;;1.25;0.70;;;;;;;;;;5069513;28;20039;-68
2023/08/11 14:43:31;;;;;;;0.68;0.38;;;;;;;;;;5062374;28;20029;-69
2023/08/11 14:45:58;;;;;;;1.08;0.82;;;;;;;;;;5055736;28;20028;-69